Time;durP1;ratioP1;P1;durP2;ratioP2;P2;SDS_P1;SDS_P2;PMS_P1;PMS_P2;Temp;Humidity;BMP_temperature;BMP_pressure;BME280_temperature;BME280_humidity;BME280_pressure;Samples;Min_cycle;Max_cycle;Signal;HPM_P1;HPM_P2
2023/06/12 00:00:51;;;;;;;11.83;11.23;;;21.20;99.70;;;;;;4964082;28;20666;-80
2023/06/12 00:03:20;;;;;;;12.63;12.00;;;21.20;99.90;;;;;;4970434;28;20517;-80
2023/06/12 00:05:48;;;;;;;11.10;10.70;;;21.20;99.90;;;;;;4967613;28;20566;-78
2023/06/12 00:08:17;;;;;;;11.97;11.20;;;21.10;99.90;;;;;;4970308;28;20474;-80
2023/06/12 00:10:47;;;;;;;11.70;11.10;;;21.10;99.80;;;;;;4965779;28;20498;-80
2023/06/12 00:13:15;;;;;;;12.50;11.80;;;21.10;99.90;;;;;;4952439;28;20463;-79
2023/06/12 00:15:43;;;;;;;11.80;11.30;;;21.10;99.80;;;;;;4969654;28;20942;-79
2023/06/12 00:18:15;;;;;;;11.23;10.80;;;21.10;99.90;;;;;;4965916;28;20483;-80
2023/06/12 00:20:43;;;;;;;11.80;11.20;;;21.10;99.90;;;;;;4950370;28;20465;-80
2023/06/12 00:23:11;;;;;;;11.00;10.60;;;21.10;99.90;;;;;;4968013;28;20474;-80
2023/06/12 00:25:40;;;;;;;12.07;11.47;;;21.10;99.80;;;;;;4964084;28;20501;-80
2023/06/12 00:28:08;;;;;;;10.87;10.47;;;21.00;99.90;;;;;;4964848;28;20470;-81
2023/06/12 00:30:36;;;;;;;11.50;10.93;;;21.00;99.70;;;;;;4965632;28;20946;-80
2023/06/12 00:33:04;;;;;;;11.50;11.00;;;21.00;99.90;;;;;;4947417;28;20464;-81
2023/06/12 00:35:34;;;;;;;11.73;11.23;;;21.00;99.70;;;;;;4964933;28;20470;-81
2023/06/12 00:38:02;;;;;;;13.03;12.30;;;20.90;99.60;;;;;;4955453;28;22203;-80
2023/06/12 00:40:30;;;;;;;12.10;11.40;;;20.90;99.90;;;;;;4961541;28;20451;-79
2023/06/12 00:42:58;;;;;;;12.53;11.83;;;20.80;99.80;;;;;;4965287;28;20471;-78
2023/06/12 00:45:27;;;;;;;11.53;10.93;;;20.90;99.60;;;;;;4967448;28;21226;-79
2023/06/12 00:47:58;;;;;;;12.00;11.20;;;20.80;99.50;;;;;;4968726;28;20471;-79
2023/06/12 00:50:27;;;;;;;11.37;10.87;;;20.80;98.60;;;;;;4950839;28;20517;-79
2023/06/12 00:52:59;;;;;;;12.13;11.53;;;20.70;98.50;;;;;;4965216;28;20446;-80
2023/06/12 00:55:30;;;;;;;10.80;10.40;;;20.60;98.00;;;;;;4967110;28;20458;-80
2023/06/12 00:57:59;;;;;;;12.27;11.77;;;20.60;97.80;;;;;;4966583;28;20490;-80
2023/06/12 01:00:28;;;;;;;11.60;11.10;;;20.60;98.50;;;;;;4963091;28;20566;-79
2023/06/12 01:03:03;;;;;;;12.27;11.57;;;20.60;98.10;;;;;;4950392;28;21278;-79
2023/06/12 01:05:35;;;;;;;10.93;10.53;;;20.60;98.60;;;;;;4967872;28;20490;-80
2023/06/12 01:08:16;;;;;;;11.60;10.97;;;20.60;97.80;;;;;;4963411;28;20602;-80
2023/06/12 01:10:49;;;;;;;11.63;11.03;;;20.60;98.20;;;;;;4966308;28;20454;-79
2023/06/12 01:13:19;;;;;;;11.47;10.87;;;20.60;98.90;;;;;;4967663;28;20470;-80
2023/06/12 01:15:47;;;;;;;11.10;10.60;;;20.60;99.20;;;;;;4966572;28;20455;-80
2023/06/12 01:18:16;;;;;;;11.60;11.00;;;20.60;99.10;;;;;;4967058;28;20991;-79
2023/06/12 01:20:45;;;;;;;11.50;11.00;;;20.50;98.90;;;;;;4960096;28;20471;-79
2023/06/12 01:23:36;;;;;;;11.47;10.97;;;20.50;99.10;;;;;;4962049;28;20469;-79
2023/06/12 01:26:36;;;;;;;12.33;11.73;;;20.50;99.60;;;;;;4967432;28;20485;-79
2023/06/12 01:29:40;;;;;;;11.00;10.50;;;20.40;99.70;;;;;;4964763;28;20544;-82
2023/06/12 01:32:14;;;;;;;11.80;10.90;;;20.40;98.90;;;;;;4963774;28;20450;-79
2023/06/12 01:34:50;;;;;;;12.40;11.70;;;20.40;99.50;;;;;;4961250;28;20778;-79
2023/06/12 01:37:25;;;;;;;12.83;11.90;;;20.40;99.30;;;;;;4947567;28;20476;-80
2023/06/12 01:39:57;;;;;;;11.37;10.87;;;20.40;99.70;;;;;;4961981;28;20517;-80
2023/06/12 01:42:27;;;;;;;11.70;10.90;;;20.40;99.90;;;;;;4939148;28;20599;-79
2023/06/12 01:44:55;;;;;;;12.03;11.53;;;20.30;99.10;;;;;;4967235;28;20469;-79
2023/06/12 01:47:25;;;;;;;12.10;11.50;;;20.30;98.90;;;;;;4965371;28;21055;-79
2023/06/12 01:49:53;;;;;;;11.33;10.80;;;20.20;99.40;;;;;;4964734;28;20976;-79
2023/06/12 01:52:21;;;;;;;11.10;10.60;;;20.30;99.80;;;;;;4967472;28;20549;-79
2023/06/12 01:54:52;;;;;;;13.37;10.97;;;20.30;99.90;;;;;;4949460;28;20488;-79
2023/06/12 01:57:20;;;;;;;11.47;11.07;;;20.20;99.90;;;;;;4938783;28;21149;-80
2023/06/12 01:59:48;;;;;;;11.50;11.00;;;20.30;99.90;;;;;;4966820;28;20593;-80
2023/06/12 02:02:17;;;;;;;11.50;11.00;;;20.30;99.90;;;;;;4969578;28;20455;-81
2023/06/12 02:04:46;;;;;;;12.43;11.83;;;20.30;99.90;;;;;;4965799;28;20466;-80
2023/06/12 02:07:14;;;;;;;11.40;11.00;;;20.20;99.90;;;;;;4968476;28;20467;-81
2023/06/12 02:09:42;;;;;;;12.23;11.73;;;20.20;99.90;;;;;;4967905;28;20457;-80
2023/06/12 02:12:11;;;;;;;11.70;11.07;;;20.20;99.90;;;;;;4961033;28;20506;-81
2023/06/12 02:14:41;;;;;;;11.97;11.33;;;20.20;99.90;;;;;;4964260;28;20571;-79
2023/06/12 02:17:09;;;;;;;11.20;10.70;;;20.20;99.90;;;;;;4964753;28;21343;-81
2023/06/12 02:19:37;;;;;;;12.10;11.50;;;20.10;99.90;;;;;;4967451;28;20483;-80
2023/06/12 02:22:07;;;;;;;11.60;11.10;;;20.10;99.90;;;;;;4964973;28;20456;-79
2023/06/12 02:24:37;;;;;;;12.30;11.53;;;20.10;99.90;;;;;;4965771;28;20466;-80
2023/06/12 02:27:05;;;;;;;11.50;11.00;;;20.10;99.90;;;;;;4964808;28;20574;-79
2023/06/12 02:29:33;;;;;;;11.30;10.80;;;20.10;99.90;;;;;;4966178;28;20458;-80
2023/06/12 02:32:01;;;;;;;11.57;10.90;;;20.10;99.90;;;;;;4964725;28;20530;-79
2023/06/12 02:34:30;;;;;;;11.50;10.90;;;20.10;99.90;;;;;;4970878;28;20665;-80
2023/06/12 02:36:58;;;;;;;11.47;10.97;;;20.10;99.90;;;;;;4966841;28;20489;-80
2023/06/12 02:39:27;;;;;;;12.40;11.90;;;20.10;99.90;;;;;;4969056;28;20493;-80
2023/06/12 02:41:55;;;;;;;11.87;11.30;;;20.10;99.90;;;;;;4967884;28;20461;-80
2023/06/12 02:44:23;;;;;;;11.30;10.90;;;20.10;99.90;;;;;;4965963;28;20447;-80
2023/06/12 02:46:52;;;;;;;12.23;11.63;;;20.10;99.90;;;;;;4966588;28;20479;-80
2023/06/12 02:49:21;;;;;;;10.80;10.40;;;20.10;99.90;;;;;;4968343;28;20464;-80
2023/06/12 02:51:49;;;;;;;11.87;11.37;;;20.00;99.90;;;;;;4970290;28;20490;-80
2023/06/12 02:54:19;;;;;;;13.27;12.57;;;19.90;99.90;;;;;;4965193;28;20458;-80
2023/06/12 02:56:48;;;;;;;12.27;11.33;;;19.90;99.90;;;;;;4944913;28;20521;-81
2023/06/12 02:59:18;;;;;;;12.47;11.97;;;19.90;99.90;;;;;;4962161;28;20482;-80
2023/06/12 03:01:46;;;;;;;12.00;11.50;;;19.90;99.90;;;;;;4966144;28;20827;-79
2023/06/12 03:04:18;;;;;;;13.40;12.67;;;19.90;99.90;;;;;;4969823;28;20462;-80
2023/06/12 03:06:48;;;;;;;12.23;11.73;;;19.90;99.90;;;;;;4969192;28;20479;-80
2023/06/12 03:09:16;;;;;;;12.17;11.47;;;19.90;99.90;;;;;;4970271;28;20461;-80
2023/06/12 03:11:45;;;;;;;12.20;11.70;;;19.90;99.90;;;;;;4971404;28;20461;-79
2023/06/12 03:14:14;;;;;;;11.83;11.43;;;20.00;99.90;;;;;;4972710;28;20447;-79
2023/06/12 03:16:43;;;;;;;12.10;11.53;;;19.90;99.90;;;;;;4970572;28;20462;-79
2023/06/12 03:19:11;;;;;;;13.23;12.63;;;19.90;99.90;;;;;;4968402;28;20561;-80
2023/06/12 03:21:39;;;;;;;13.27;12.50;;;19.80;99.90;;;;;;4972674;28;21243;-79
2023/06/12 03:24:08;;;;;;;12.97;12.47;;;19.90;99.90;;;;;;4970926;28;21048;-80
2023/06/12 03:26:36;;;;;;;12.23;11.63;;;19.80;99.90;;;;;;4970952;28;21022;-79
2023/06/12 03:29:04;;;;;;;13.07;12.47;;;19.80;99.90;;;;;;4970488;28;21122;-80
2023/06/12 03:31:34;;;;;;;12.10;11.60;;;19.80;99.90;;;;;;4971010;28;20451;-79
2023/06/12 03:34:02;;;;;;;12.23;11.73;;;19.80;99.90;;;;;;4967295;28;20457;-80
2023/06/12 03:36:33;;;;;;;14.27;12.03;;;19.80;99.90;;;;;;4971221;28;20534;-80
2023/06/12 03:39:03;;;;;;;12.10;11.60;;;19.80;99.90;;;;;;4968401;28;20578;-79
2023/06/12 03:41:33;;;;;;;12.20;11.70;;;19.80;99.90;;;;;;4972785;28;20455;-79
2023/06/12 03:44:01;;;;;;;13.00;12.27;;;19.80;99.90;;;;;;4965456;28;20460;-80
2023/06/12 03:46:30;;;;;;;12.27;11.67;;;19.70;99.90;;;;;;4969812;28;21001;-79
2023/06/12 03:49:00;;;;;;;12.20;11.50;;;19.70;99.90;;;;;;4969494;28;20983;-80
2023/06/12 03:51:29;;;;;;;12.47;11.90;;;19.70;99.90;;;;;;4968274;28;20466;-79
2023/06/12 03:53:57;;;;;;;12.50;11.97;;;19.70;99.90;;;;;;4973036;28;20475;-80
2023/06/12 03:56:25;;;;;;;13.57;12.90;;;19.60;99.90;;;;;;4965682;28;20455;-80
2023/06/12 03:58:53;;;;;;;13.30;12.60;;;19.70;99.90;;;;;;4967016;28;21288;-79
2023/06/12 04:01:21;;;;;;;12.90;12.50;;;19.70;99.90;;;;;;4965109;28;20830;-79
2023/06/12 04:03:49;;;;;;;13.80;13.10;;;19.70;99.90;;;;;;4967008;28;20461;-79
2023/06/12 04:06:20;;;;;;;13.90;13.30;;;19.70;99.90;;;;;;4972831;28;20450;-79
2023/06/12 04:08:48;;;;;;;14.17;13.37;;;19.70;99.90;;;;;;4973931;28;20455;-80
2023/06/12 04:11:18;;;;;;;14.50;13.90;;;19.70;99.90;;;;;;4970374;28;21008;-79
2023/06/12 04:13:46;;;;;;;13.73;13.13;;;19.80;99.90;;;;;;4969468;28;20475;-80
2023/06/12 04:16:15;;;;;;;13.80;13.20;;;19.80;99.90;;;;;;4973952;28;20504;-79
2023/06/12 04:18:43;;;;;;;14.40;13.83;;;19.80;99.90;;;;;;4971236;28;20865;-78
2023/06/12 04:21:11;;;;;;;14.20;13.60;;;19.80;99.90;;;;;;4968299;28;20465;-79
2023/06/12 04:23:41;;;;;;;15.80;14.70;;;19.80;99.90;;;;;;4973431;28;20442;-78
2023/06/12 04:26:10;;;;;;;14.27;13.67;;;19.80;99.90;;;;;;4953835;28;20912;-80
2023/06/12 04:28:38;;;;;;;14.87;14.17;;;19.80;99.90;;;;;;4970693;28;20538;-82
2023/06/12 04:31:06;;;;;;;14.57;13.97;;;19.80;99.90;;;;;;4972468;28;20455;-80
2023/06/12 04:33:35;;;;;;;14.73;14.13;;;19.80;99.90;;;;;;4972686;28;20513;-80
2023/06/12 04:36:07;;;;;;;15.53;14.90;;;19.80;99.90;;;;;;4968874;28;20471;-80
2023/06/12 04:38:38;;;;;;;15.43;14.77;;;19.80;99.90;;;;;;4973040;28;20674;-80
2023/06/12 04:41:09;;;;;;;15.67;15.03;;;19.80;99.90;;;;;;4965708;28;20498;-81
2023/06/12 04:43:38;;;;;;;16.90;16.20;;;19.80;99.90;;;;;;4969861;28;20451;-80
2023/06/12 04:46:07;;;;;;;17.37;16.37;;;19.80;99.90;;;;;;4969133;28;20466;-80
2023/06/12 04:48:36;;;;;;;15.30;14.60;;;19.80;99.90;;;;;;4968539;28;20465;-86
2023/06/12 04:51:04;;;;;;;14.83;14.23;;;19.80;99.90;;;;;;4953723;28;20462;-84
2023/06/12 04:53:32;;;;;;;15.43;14.80;;;19.80;99.90;;;;;;4969710;28;20637;-85
2023/06/12 04:56:04;;;;;;;16.10;15.40;;;19.80;99.90;;;;;;4973576;28;20489;-87
2023/06/12 04:58:34;;;;;;;16.43;15.50;;;19.80;99.90;;;;;;4976399;28;21026;-84
2023/06/12 05:01:02;;;;;;;15.90;15.30;;;19.80;99.90;;;;;;4960647;28;20476;-83
2023/06/12 05:03:33;;;;;;;17.60;16.60;;;19.80;99.90;;;;;;4971002;28;20447;-83
2023/06/12 05:06:01;;;;;;;17.40;16.60;;;19.80;99.90;;;;;;4974186;28;20872;-82
2023/06/12 05:08:30;;;;;;;16.00;15.20;;;19.70;99.90;;;;;;4970345;28;20493;-82
2023/06/12 05:11:01;;;;;;;14.90;14.40;;;19.70;99.90;;;;;;4973783;28;21175;-84
2023/06/12 05:13:30;;;;;;;16.20;15.50;;;19.80;99.90;;;;;;4977225;28;20875;-83
2023/06/12 05:15:59;;;;;;;16.60;15.90;;;19.90;99.90;;;;;;4976469;28;20465;-86
2023/06/12 05:18:28;;;;;;;16.50;15.70;;;19.90;99.90;;;;;;4956928;28;20549;-84
2023/06/12 05:20:58;;;;;;;16.63;15.90;;;19.90;99.90;;;;;;4974153;28;20546;-83
2023/06/12 05:23:27;;;;;;;16.27;15.57;;;19.90;99.90;;;;;;4977778;28;20451;-85
2023/06/12 05:25:55;;;;;;;16.10;15.40;;;19.90;99.90;;;;;;4971551;28;20466;-84
2023/06/12 05:28:25;;;;;;;16.17;15.43;;;20.00;99.90;;;;;;4955097;28;20489;-85
2023/06/12 05:30:53;;;;;;;16.47;15.77;;;20.00;99.90;;;;;;4971522;28;20782;-87
2023/06/12 05:33:22;;;;;;;16.70;16.00;;;20.00;99.90;;;;;;4955074;28;20467;-85
2023/06/12 05:35:51;;;;;;;16.30;15.60;;;20.00;99.90;;;;;;4973874;28;21095;-86
2023/06/12 05:38:19;;;;;;;17.13;16.20;;;20.10;99.90;;;;;;4971862;28;21075;-85
2023/06/12 05:40:47;;;;;;;17.60;16.90;;;20.10;99.90;;;;;;4970617;28;20508;-84
2023/06/12 05:43:15;;;;;;;16.30;15.70;;;20.10;99.90;;;;;;4971845;28;20319;-85
2023/06/12 05:45:43;;;;;;;17.20;16.40;;;20.10;99.90;;;;;;4973442;28;20870;-85
2023/06/12 05:48:11;;;;;;;17.00;16.20;;;20.20;99.90;;;;;;4965508;28;20475;-85
2023/06/12 05:50:41;;;;;;;17.30;16.40;;;20.20;99.90;;;;;;4972530;28;20452;-85
2023/06/12 05:53:10;;;;;;;16.20;15.60;;;20.30;99.90;;;;;;4971902;28;20459;-85
2023/06/12 05:55:38;;;;;;;16.20;15.50;;;20.30;99.90;;;;;;4979424;28;20476;-84
2023/06/12 05:58:06;;;;;;;16.40;15.70;;;20.40;99.90;;;;;;4973473;28;21027;-85
2023/06/12 06:00:35;;;;;;;16.77;15.97;;;20.30;99.90;;;;;;4973239;28;21275;-83
2023/06/12 06:03:04;;;;;;;17.47;16.67;;;20.40;99.90;;;;;;4973137;28;20825;-86
2023/06/12 06:05:32;;;;;;;17.90;17.20;;;20.50;99.90;;;;;;4957669;28;20458;-81
2023/06/12 06:08:02;;;;;;;18.67;17.77;;;20.50;99.90;;;;;;4955964;28;20550;-83
2023/06/12 06:10:31;;;;;;;18.00;17.10;;;20.50;99.90;;;;;;4973444;28;20497;-85
2023/06/12 06:13:00;;;;;;;17.87;17.17;;;20.60;99.90;;;;;;4978348;28;20466;-83
2023/06/12 06:15:28;;;;;;;17.30;16.60;;;20.50;99.90;;;;;;4953190;28;20941;-84
2023/06/12 06:17:57;;;;;;;17.50;16.57;;;20.60;99.90;;;;;;4950389;28;20489;-84
2023/06/12 06:20:26;;;;;;;17.83;16.93;;;20.70;99.90;;;;;;4968230;28;21039;-83
2023/06/12 06:22:55;;;;;;;17.30;16.50;;;20.70;99.90;;;;;;4971127;28;20517;-83
2023/06/12 06:25:24;;;;;;;18.40;17.60;;;20.70;99.90;;;;;;4966754;28;20459;-83
2023/06/12 06:27:53;;;;;;;17.40;16.70;;;20.70;99.90;;;;;;4970885;28;21304;-83
2023/06/12 06:30:21;;;;;;;18.60;17.70;;;20.80;99.90;;;;;;4968473;28;20514;-83
2023/06/12 06:32:49;;;;;;;18.10;17.40;;;20.80;99.90;;;;;;4972112;28;21239;-83
2023/06/12 06:35:18;;;;;;;17.47;16.77;;;20.90;99.90;;;;;;4967372;28;20204;-83
2023/06/12 06:37:46;;;;;;;18.47;17.47;;;21.00;99.90;;;;;;4970498;28;20482;-84
2023/06/12 06:40:15;;;;;;;17.73;16.90;;;21.00;99.90;;;;;;4970210;28;20461;-84
2023/06/12 06:42:45;;;;;;;17.60;16.80;;;21.10;99.90;;;;;;4971311;28;20530;-84
2023/06/12 06:45:13;;;;;;;18.03;17.30;;;21.20;99.90;;;;;;4970765;28;20455;-84
2023/06/12 06:47:42;;;;;;;19.13;18.33;;;21.20;99.90;;;;;;4975743;28;20473;-85
2023/06/12 06:50:11;;;;;;;18.70;17.90;;;21.20;99.90;;;;;;4955287;28;20458;-85
2023/06/12 06:52:40;;;;;;;18.90;17.97;;;21.30;99.90;;;;;;4964370;28;20478;-83
2023/06/12 06:55:09;;;;;;;19.10;18.17;;;21.40;99.90;;;;;;4960784;28;20482;-83
2023/06/12 06:57:38;;;;;;;18.50;17.80;;;21.40;99.90;;;;;;4974349;28;20488;-84
2023/06/12 07:00:09;;;;;;;19.47;18.47;;;21.50;99.90;;;;;;4970891;28;20462;-83
2023/06/12 07:02:39;;;;;;;18.30;17.40;;;21.60;99.90;;;;;;4972682;28;20818;-82
2023/06/12 07:05:08;;;;;;;18.30;17.60;;;21.70;99.90;;;;;;4976519;28;20580;-81
2023/06/12 07:07:38;;;;;;;18.73;17.83;;;21.70;99.90;;;;;;4932188;28;21051;-82
2023/06/12 07:10:26;;;;;;;19.43;18.33;;;21.70;99.90;;;;;;4971627;28;20798;-83
2023/06/12 07:12:56;;;;;;;18.80;18.10;;;21.70;99.90;;;;;;4973827;28;20909;-82
2023/06/12 07:15:26;;;;;;;18.87;18.17;;;21.80;99.90;;;;;;4950004;28;20546;-83
2023/06/12 07:17:55;;;;;;;18.63;17.83;;;21.80;99.90;;;;;;4956494;28;20481;-84
2023/06/12 07:20:23;;;;;;;19.90;18.87;;;21.80;99.90;;;;;;4981227;28;20976;-84
2023/06/12 07:22:51;;;;;;;19.13;18.23;;;21.90;99.90;;;;;;4962424;28;20451;-84
2023/06/12 07:25:19;;;;;;;18.80;18.10;;;21.90;99.90;;;;;;4981909;28;20481;-83
2023/06/12 07:27:47;;;;;;;19.50;18.60;;;22.00;99.90;;;;;;4978752;28;20488;-83
2023/06/12 07:30:15;;;;;;;18.83;18.13;;;22.00;99.90;;;;;;4978297;28;20685;-84
2023/06/12 07:32:45;;;;;;;19.77;18.67;;;22.10;99.90;;;;;;4955068;28;20466;-82
2023/06/12 07:35:14;;;;;;;20.40;19.50;;;22.10;99.90;;;;;;4975029;28;20865;-83
2023/06/12 07:37:43;;;;;;;19.73;18.30;;;22.10;99.90;;;;;;4977623;28;20510;-83
2023/06/12 07:40:12;;;;;;;20.20;19.10;;;22.20;99.90;;;;;;4972584;28;20953;-83
2023/06/12 07:42:42;;;;;;;19.50;18.70;;;22.20;99.90;;;;;;4963717;28;20479;-85
2023/06/12 07:45:11;;;;;;;18.97;18.07;;;22.20;99.90;;;;;;4963223;28;20640;-84
2023/06/12 07:47:40;;;;;;;18.90;18.20;;;22.30;99.90;;;;;;4983145;23;20497;-84
2023/06/12 08:14:33;;;;;;;20.03;19.13;;;22.60;99.90;;;;;;4979097;28;21091;-83
2023/06/12 08:20:31;;;;;;;19.67;18.77;;;22.60;99.90;;;;;;4938607;23;21071;-83
2023/06/12 08:33:05;;;;;;;19.57;18.80;;;22.90;99.90;;;;;;4921206;29;20485;-85
2023/06/12 08:39:30;;;;;;;19.27;18.37;;;22.90;99.90;;;;;;5620432;23;20515;-84
2023/06/12 08:49:30;;;;;;;17.60;16.80;;;23.10;99.90;;;;;;5715843;23;20644;-84
2023/06/12 08:56:26;;;;;;;16.70;16.00;;;23.10;99.90;;;;;;4942968;23;20539;-83
2023/06/12 08:59:03;;;;;;;16.80;16.13;;;23.20;99.90;;;;;;4916302;29;20461;-81
2023/06/12 09:06:15;;;;;;;17.20;16.40;;;23.30;99.90;;;;;;4874361;29;21104;-84
2023/06/12 09:08:44;;;;;;;17.60;16.70;;;23.40;99.90;;;;;;4898167;29;20967;-85
2023/06/12 09:11:12;;;;;;;17.60;16.47;;;23.30;99.90;;;;;;4896474;29;20461;-84
2023/06/12 09:13:41;;;;;;;17.40;16.50;;;23.40;99.90;;;;;;4901495;29;20492;-84
2023/06/12 09:16:14;;;;;;;17.27;16.43;;;23.50;99.90;;;;;;4895789;29;21241;-84
2023/06/12 09:18:51;;;;;;;16.73;16.13;;;23.60;99.90;;;;;;4895549;29;20521;-84
2023/06/12 09:21:23;;;;;;;16.33;15.73;;;23.60;99.90;;;;;;4896974;29;20492;-84
2023/06/12 09:23:52;;;;;;;17.60;16.90;;;23.60;99.90;;;;;;4894101;29;20471;-84
2023/06/12 09:26:21;;;;;;;17.73;17.03;;;23.60;99.90;;;;;;4904485;29;20454;-85
2023/06/12 09:28:53;;;;;;;18.17;17.47;;;23.60;99.90;;;;;;4901130;29;20553;-84
2023/06/12 09:31:22;;;;;;;18.63;17.87;;;23.70;99.90;;;;;;4895680;29;20474;-88
2023/06/12 09:33:52;;;;;;;18.03;17.23;;;23.80;99.90;;;;;;4895881;29;20463;-86
2023/06/12 09:36:28;;;;;;;17.80;17.10;;;23.70;99.90;;;;;;4907949;29;21283;-85
2023/06/12 09:38:58;;;;;;;17.80;17.10;;;23.70;99.90;;;;;;4902902;29;20497;-84
2023/06/12 09:41:26;;;;;;;18.73;17.93;;;23.80;99.90;;;;;;4899258;29;20537;-85
2023/06/12 09:44:02;;;;;;;18.17;17.23;;;23.80;99.90;;;;;;4900366;29;20498;-85
2023/06/12 09:46:32;;;;;;;17.87;17.03;;;23.80;99.90;;;;;;4895919;29;20838;-84
2023/06/12 09:49:01;;;;;;;18.70;17.90;;;23.80;99.90;;;;;;4897459;29;20498;-83
2023/06/12 09:51:32;;;;;;;17.13;16.13;;;23.90;99.90;;;;;;4893090;29;20468;-85
2023/06/12 09:54:02;;;;;;;17.43;16.57;;;23.80;99.90;;;;;;4895864;29;20475;-84
2023/06/12 09:56:31;;;;;;;16.87;16.23;;;23.90;99.90;;;;;;4904991;29;20465;-85
2023/06/12 09:59:00;;;;;;;17.00;16.30;;;23.90;99.90;;;;;;4898631;29;20512;-84
2023/06/12 10:01:28;;;;;;;17.73;16.93;;;23.90;99.90;;;;;;4891032;29;20561;-84
2023/06/12 10:03:59;;;;;;;16.50;15.80;;;23.80;99.90;;;;;;4895135;29;20979;-85
2023/06/12 10:06:28;;;;;;;17.03;16.33;;;23.80;99.90;;;;;;4900481;29;20804;-84
2023/06/12 10:08:58;;;;;;;17.07;16.37;;;23.90;99.90;;;;;;4899415;29;20454;-85
2023/06/12 10:11:26;;;;;;;18.00;17.37;;;23.80;99.90;;;;;;4900904;29;20466;-85
2023/06/12 10:13:56;;;;;;;16.70;16.00;;;23.80;99.90;;;;;;4899704;29;20477;-83
2023/06/12 10:16:25;;;;;;;17.50;16.70;;;23.80;99.90;;;;;;4899589;29;20463;-84
2023/06/12 10:18:56;;;;;;;17.10;16.50;;;23.80;99.90;;;;;;4902292;29;20461;-84
2023/06/12 10:21:24;;;;;;;18.27;17.20;;;23.80;99.90;;;;;;4897609;29;20464;-84
2023/06/12 10:23:53;;;;;;;19.00;18.20;;;23.90;99.90;;;;;;4895648;29;21008;-85
2023/06/12 10:26:24;;;;;;;18.80;18.00;;;24.00;99.90;;;;;;4901757;29;20453;-84
2023/06/12 10:28:55;;;;;;;18.57;17.77;;;24.10;99.90;;;;;;4898986;29;20848;-85
2023/06/12 10:31:24;;;;;;;17.10;16.50;;;24.10;99.90;;;;;;4899581;29;20457;-85
2023/06/12 10:34:05;;;;;;;16.63;16.00;;;24.20;99.90;;;;;;4899330;29;20557;-85
2023/06/12 10:36:43;;;;;;;17.63;16.93;;;24.20;99.90;;;;;;4901303;29;20458;-84
2023/06/12 10:39:16;;;;;;;18.07;17.37;;;24.30;99.90;;;;;;4898453;29;20495;-85
2023/06/12 10:41:57;;;;;;;17.60;16.80;;;24.20;99.90;;;;;;4897601;29;20469;-84
2023/06/12 10:44:38;;;;;;;17.20;16.57;;;24.30;99.90;;;;;;4899611;29;20814;-85
2023/06/12 10:47:19;;;;;;;18.20;17.50;;;24.40;99.90;;;;;;4901408;29;20509;-83
2023/06/12 10:50:01;;;;;;;18.47;17.57;;;24.40;99.90;;;;;;4899501;29;20484;-83
2023/06/12 10:52:29;;;;;;;17.07;16.40;;;24.30;99.90;;;;;;4901648;29;20494;-85
2023/06/12 10:55:20;;;;;;;17.93;17.23;;;24.40;99.90;;;;;;4914216;29;20834;-84
2023/06/12 10:57:51;;;;;;;18.40;17.70;;;24.30;99.90;;;;;;4901337;29;20482;-85
2023/06/12 11:00:21;;;;;;;17.80;17.00;;;24.40;99.90;;;;;;4904060;29;20461;-85
2023/06/12 11:02:58;;;;;;;18.13;17.43;;;24.40;99.90;;;;;;4899862;29;20481;-85
2023/06/12 11:05:27;;;;;;;17.40;16.60;;;24.40;99.90;;;;;;4884496;29;21066;-82
2023/06/12 11:07:57;;;;;;;17.00;16.37;;;24.50;99.90;;;;;;4897025;29;20499;-84
2023/06/12 11:10:26;;;;;;;16.63;16.00;;;24.50;99.90;;;;;;4894036;29;20465;-84
2023/06/12 11:12:56;;;;;;;18.47;17.57;;;24.50;99.90;;;;;;4893773;29;20588;-83
2023/06/12 11:15:25;;;;;;;17.00;16.40;;;24.50;99.90;;;;;;4896130;29;20480;-84
2023/06/12 11:17:53;;;;;;;17.57;16.97;;;24.50;99.90;;;;;;4897761;29;21016;-84
2023/06/12 11:20:23;;;;;;;17.63;16.83;;;24.60;99.90;;;;;;4895752;29;20461;-84
2023/06/12 11:23:00;;;;;;;16.50;15.80;;;24.60;99.90;;;;;;4893299;29;20501;-83
2023/06/12 11:25:32;;;;;;;16.60;15.90;;;24.60;99.90;;;;;;4897801;29;20462;-82
2023/06/12 11:31:50;;;;;;;17.13;16.30;;;24.60;99.90;;;;;;4845722;29;20468;-84
2023/06/12 11:34:18;;;;;;;17.00;16.17;;;24.70;99.90;;;;;;4890119;29;20471;-83
2023/06/12 11:36:46;;;;;;;16.83;16.13;;;24.60;99.90;;;;;;4898262;29;20994;-81
2023/06/12 11:39:18;;;;;;;15.83;15.23;;;24.60;99.90;;;;;;4900697;29;20472;-82
2023/06/12 11:41:49;;;;;;;14.83;14.23;;;24.50;99.90;;;;;;4901959;29;20472;-84
2023/06/12 11:44:17;;;;;;;16.90;16.10;;;24.60;99.90;;;;;;4907972;29;20482;-85
2023/06/12 11:46:45;;;;;;;16.70;15.70;;;24.60;99.90;;;;;;4900005;29;20574;-83
2023/06/12 11:49:16;;;;;;;16.40;15.60;;;24.70;99.90;;;;;;4899430;29;20894;-83
2023/06/12 11:51:44;;;;;;;16.80;16.10;;;24.70;99.90;;;;;;4899066;29;20490;-85
2023/06/12 11:54:15;;;;;;;16.70;16.10;;;24.80;99.90;;;;;;4904273;29;20482;-84
2023/06/12 11:56:43;;;;;;;17.33;16.33;;;24.80;99.90;;;;;;4898518;29;20993;-83
2023/06/12 11:59:15;;;;;;;16.20;15.60;;;24.80;99.90;;;;;;4895805;29;21154;-83
2023/06/12 12:01:45;;;;;;;17.00;16.27;;;24.90;99.90;;;;;;4889089;29;20561;-83
2023/06/12 12:04:16;;;;;;;17.37;16.67;;;24.80;99.90;;;;;;4899898;29;20569;-84
2023/06/12 12:06:50;;;;;;;16.63;15.63;;;25.00;99.90;;;;;;4902215;29;20492;-83
2023/06/12 12:09:25;;;;;;;17.50;16.50;;;25.00;99.90;;;;;;4902474;29;20953;-83
2023/06/12 12:12:06;;;;;;;16.40;15.77;;;25.00;99.90;;;;;;4903208;29;20561;-84
2023/06/12 12:14:34;;;;;;;17.90;16.70;;;25.00;99.90;;;;;;4903169;29;20439;-84
2023/06/12 12:17:06;;;;;;;16.97;16.20;;;25.00;99.90;;;;;;4902593;29;20478;-83
2023/06/12 12:19:35;;;;;;;16.67;16.00;;;25.00;99.90;;;;;;4903212;29;20490;-82
2023/06/12 12:22:19;;;;;;;17.20;16.30;;;25.00;99.90;;;;;;4902032;29;20460;-85
2023/06/12 12:25:07;;;;;;;15.23;14.63;;;25.00;99.90;;;;;;4901459;29;20550;-83
2023/06/12 12:27:56;;;;;;;14.83;14.10;;;25.00;99.90;;;;;;4900709;29;20490;-85
2023/06/12 12:30:25;;;;;;;15.17;14.47;;;25.00;99.90;;;;;;4902485;29;20462;-84
2023/06/12 12:32:58;;;;;;;15.00;14.30;;;25.00;99.90;;;;;;4900760;29;20989;-84
2023/06/12 12:35:27;;;;;;;15.33;14.53;;;25.00;99.90;;;;;;4904262;29;20460;-84
2023/06/12 12:37:58;;;;;;;14.43;13.73;;;25.00;99.90;;;;;;4900691;29;20485;-84
2023/06/12 12:40:28;;;;;;;15.23;14.63;;;25.00;99.90;;;;;;4902968;29;20465;-83
2023/06/12 12:42:57;;;;;;;14.93;14.20;;;25.00;99.90;;;;;;4898792;29;20454;-84
2023/06/12 12:45:26;;;;;;;14.97;14.40;;;25.00;99.90;;;;;;4905761;29;20461;-84
2023/06/12 12:47:54;;;;;;;15.73;15.03;;;25.10;99.90;;;;;;4900955;29;20480;-83
2023/06/12 12:50:22;;;;;;;15.43;14.70;;;25.00;99.90;;;;;;4899685;29;20476;-83
2023/06/12 12:52:56;;;;;;;15.57;14.80;;;25.00;99.90;;;;;;4901198;29;20467;-83
2023/06/12 12:55:24;;;;;;;16.27;15.47;;;25.00;99.90;;;;;;4902003;29;20563;-84
2023/06/12 12:57:52;;;;;;;16.33;15.63;;;25.10;99.90;;;;;;4900309;29;20493;-84
2023/06/12 13:00:40;;;;;;;14.90;14.00;;;25.10;99.90;;;;;;4901119;29;20450;-83
2023/06/12 13:03:08;;;;;;;13.90;13.20;;;25.10;99.90;;;;;;4903732;29;20510;-84
2023/06/12 13:05:37;;;;;;;14.13;13.53;;;25.10;99.90;;;;;;4904210;29;20462;-84
2023/06/12 13:08:10;;;;;;;13.93;13.33;;;25.20;99.90;;;;;;4901723;29;20497;-83
2023/06/12 13:10:38;;;;;;;13.97;13.27;;;25.20;99.90;;;;;;4897519;29;21094;-85
2023/06/12 13:13:06;;;;;;;13.63;12.90;;;25.10;99.90;;;;;;4902673;29;21213;-82
2023/06/12 13:15:34;;;;;;;14.23;13.20;;;25.20;99.90;;;;;;4901946;29;20474;-86
2023/06/12 13:18:03;;;;;;;14.37;13.60;;;25.20;99.90;;;;;;4899901;29;20513;-85
2023/06/12 13:20:31;;;;;;;13.60;13.00;;;25.30;99.90;;;;;;4905681;29;20472;-83
2023/06/12 13:22:59;;;;;;;14.03;13.20;;;25.20;99.90;;;;;;4902887;29;20451;-85
2023/06/12 13:25:28;;;;;;;13.57;13.00;;;25.20;99.90;;;;;;4902494;29;20489;-84
2023/06/12 13:27:57;;;;;;;14.53;13.80;;;25.30;99.90;;;;;;4903664;29;20575;-85
2023/06/12 13:30:25;;;;;;;15.33;14.30;;;25.20;99.90;;;;;;4901202;29;20462;-83
2023/06/12 13:37:36;;;;;;;15.17;14.47;;;25.30;99.90;;;;;;5288194;23;20648;-84
2023/06/12 13:40:04;;;;;;;13.47;12.83;;;25.30;99.90;;;;;;4915855;29;20492;-82
2023/06/12 13:42:34;;;;;;;13.97;13.27;;;25.30;99.90;;;;;;4919046;29;20457;-82
2023/06/12 13:45:04;;;;;;;13.83;13.13;;;25.30;99.90;;;;;;4909848;29;20498;-83
2023/06/12 13:47:32;;;;;;;13.50;12.90;;;25.30;99.90;;;;;;4907247;29;20493;-84
2023/06/12 13:50:00;;;;;;;12.67;12.20;;;25.30;99.90;;;;;;4900830;29;20505;-83